createdAt,value
2019-03-06T00:00:22.856Z,0.00
2019-03-06T00:01:22.857Z,0.00
2019-03-06T00:02:22.833Z,0.00
2019-03-06T00:03:22.824Z,0.00
2019-03-06T00:04:22.810Z,0.00
2019-03-06T00:05:22.814Z,0.00
2019-03-06T00:06:22.787Z,0.00
2019-03-06T00:07:22.791Z,0.00
2019-03-06T00:08:22.765Z,0.00
2019-03-06T00:09:22.754Z,0.00
2019-03-06T00:10:22.775Z,0.00
2019-03-06T00:11:22.760Z,0.00
2019-03-06T00:12:22.718Z,0.00
2019-03-06T00:13:22.717Z,0.00
2019-03-06T00:14:22.701Z,0.00
2019-03-06T00:15:22.701Z,0.00
2019-03-06T00:16:22.674Z,0.00
2019-03-06T00:17:22.662Z,0.00
2019-03-06T00:18:22.652Z,0.00
2019-03-06T00:19:22.649Z,0.00
2019-03-06T00:20:22.645Z,0.00
2019-03-06T00:21:22.618Z,0.00
2019-03-06T00:22:22.614Z,0.00
2019-03-06T00:23:22.598Z,0.00
2019-03-06T00:24:22.592Z,0.00
2019-03-06T00:25:22.599Z,0.00
2019-03-06T00:26:22.563Z,0.00
2019-03-06T00:27:22.552Z,0.00
2019-03-06T00:28:22.541Z,0.00
2019-03-06T00:29:22.530Z,0.00
2019-03-06T00:30:22.533Z,0.00
2019-03-06T00:31:22.518Z,0.00
2019-03-06T00:32:22.496Z,0.00
2019-03-06T00:33:22.507Z,0.00
2019-03-06T00:34:22.474Z,0.00
2019-03-06T00:35:22.964Z,0.00
2019-03-06T00:36:22.455Z,0.00
2019-03-06T00:37:22.595Z,0.00
2019-03-06T00:38:22.429Z,0.00
2019-03-06T00:39:22.419Z,0.00
2019-03-06T00:40:22.440Z,0.00
2019-03-06T00:41:22.396Z,0.00
2019-03-06T00:42:22.384Z,0.00
2019-03-06T00:43:22.381Z,0.00
2019-03-06T00:44:22.363Z,0.00
2019-03-06T00:45:22.350Z,0.00
2019-03-06T00:46:22.367Z,0.00
2019-03-06T00:47:22.328Z,0.00
2019-03-06T00:48:22.316Z,0.00
2019-03-06T00:49:22.310Z,0.00
2019-03-06T00:50:22.296Z,0.00
2019-03-06T00:51:22.301Z,0.00
2019-03-06T00:52:22.272Z,0.00
2019-03-06T00:53:22.260Z,0.00
2019-03-06T00:54:22.251Z,0.00
2019-03-06T00:55:22.247Z,0.00
2019-03-06T00:56:22.265Z,0.00
2019-03-06T00:57:22.217Z,0.00
2019-03-06T00:58:22.205Z,0.00
2019-03-06T00:59:22.195Z,0.00
2019-03-06T01:00:22.226Z,0.00
2019-03-06T01:01:22.193Z,0.00
2019-03-06T01:02:22.162Z,0.00
2019-03-06T01:03:22.149Z,0.00
2019-03-06T01:04:22.138Z,0.00
2019-03-06T01:05:22.127Z,0.00
2019-03-06T01:06:22.131Z,0.00
2019-03-06T01:07:22.114Z,0.00
2019-03-06T01:08:22.093Z,0.00
2019-03-06T01:09:22.099Z,0.00
2019-03-06T01:10:22.072Z,0.00
2019-03-06T01:11:22.077Z,0.00
2019-03-06T01:12:22.046Z,0.00
2019-03-06T01:13:22.053Z,0.00
2019-03-06T01:14:22.025Z,0.00
2019-03-06T01:15:22.013Z,0.00
2019-03-06T01:16:22.018Z,0.00
2019-03-06T01:17:21.994Z,0.00
2019-03-06T01:18:21.979Z,0.00
2019-03-06T01:19:21.980Z,0.00
2019-03-06T01:20:21.958Z,0.00
2019-03-06T01:21:21.972Z,0.00
2019-03-06T01:22:21.936Z,0.00
2019-03-06T01:23:21.923Z,0.00
2019-03-06T01:24:21.918Z,0.00
2019-03-06T01:25:21.910Z,0.00
2019-03-06T01:26:21.905Z,0.00
2019-03-06T01:27:21.882Z,0.00
2019-03-06T01:28:21.870Z,0.00
2019-03-06T01:29:21.857Z,0.00
2019-03-06T01:30:21.846Z,0.00
2019-03-06T01:31:21.858Z,0.00
2019-03-06T01:32:21.825Z,0.00
2019-03-06T01:33:21.812Z,0.00
2019-03-06T01:34:21.801Z,0.00
2019-03-06T01:35:21.790Z,0.00
2019-03-06T01:36:21.794Z,0.00
2019-03-06T01:37:21.774Z,0.00
2019-03-06T01:38:21.755Z,0.00
2019-03-06T01:39:21.745Z,0.00
2019-03-06T01:40:21.738Z,0.00
2019-03-06T01:41:21.757Z,0.00
2019-03-06T01:42:21.718Z,0.00
2019-03-06T01:43:21.708Z,0.00
2019-03-06T01:44:21.690Z,0.00
2019-03-06T01:45:21.685Z,0.00
2019-03-06T01:46:21.666Z,0.00
2019-03-06T01:47:21.671Z,0.00
2019-03-06T01:48:21.646Z,0.00
2019-03-06T01:49:21.638Z,0.00
2019-03-06T01:50:21.622Z,0.00
2019-03-06T01:51:21.611Z,0.00
2019-03-06T01:52:21.618Z,0.00
2019-03-06T01:53:21.591Z,0.00
2019-03-06T01:54:21.580Z,0.00
2019-03-06T01:55:21.576Z,0.00
2019-03-06T01:56:21.557Z,0.00
2019-03-06T01:57:21.561Z,0.00
2019-03-06T01:58:21.539Z,0.00
2019-03-06T01:59:21.521Z,0.00
2019-03-06T02:00:21.513Z,0.00
2019-03-06T02:01:21.506Z,0.00
2019-03-06T02:02:21.504Z,0.00
2019-03-06T02:03:21.480Z,0.00
2019-03-06T02:04:21.466Z,0.00
2019-03-06T02:05:21.455Z,0.00
2019-03-06T02:06:21.443Z,0.00
2019-03-06T02:07:21.462Z,0.00
2019-03-06T02:08:21.423Z,0.00
2019-03-06T02:09:21.409Z,0.00
2019-03-06T02:10:21.398Z,0.00
2019-03-06T02:11:21.389Z,0.00
2019-03-06T02:12:21.402Z,0.00
2019-03-06T02:13:21.397Z,0.00
2019-03-06T02:14:21.352Z,0.00
2019-03-06T02:15:21.345Z,0.00
2019-03-06T02:16:21.330Z,0.00
2019-03-06T02:17:21.319Z,0.00
2019-03-06T02:18:21.326Z,0.00
2019-03-06T02:19:21.301Z,0.00
2019-03-06T02:20:21.294Z,0.00
2019-03-06T02:21:21.289Z,0.00
2019-03-06T02:22:21.264Z,0.00
2019-03-06T02:23:21.268Z,0.00
2019-03-06T02:24:21.242Z,0.00
2019-03-06T02:25:21.231Z,0.00
2019-03-06T02:26:21.236Z,20.00
2019-03-06T02:27:21.208Z,16.00
2019-03-06T02:28:21.213Z,16.00
2019-03-06T02:29:21.189Z,16.00
2019-03-06T02:30:21.174Z,16.00
2019-03-06T02:31:21.164Z,16.00
2019-03-06T02:32:21.178Z,16.00
2019-03-06T02:33:21.162Z,16.00
2019-03-06T02:34:21.131Z,16.00
2019-03-06T02:35:21.118Z,16.00
2019-03-06T02:36:21.108Z,16.00
2019-03-06T02:37:21.133Z,16.00
2019-03-06T02:38:21.114Z,16.00
2019-03-06T02:39:21.084Z,16.00
2019-03-06T02:40:21.069Z,16.00
2019-03-06T02:41:21.053Z,16.00
2019-03-06T02:42:21.039Z,16.00
2019-03-06T02:43:21.051Z,16.00
2019-03-06T02:44:21.049Z,12.00
2019-03-06T02:45:21.006Z,0.00
2019-03-06T02:46:20.996Z,0.00
2019-03-06T02:47:20.984Z,0.00
2019-03-06T02:48:20.990Z,0.00
2019-03-06T02:49:20.963Z,0.00
2019-03-06T02:50:20.963Z,0.00
2019-03-06T02:51:20.942Z,0.00
2019-03-06T02:52:20.931Z,0.00
2019-03-06T02:53:20.942Z,0.00
2019-03-06T02:54:20.907Z,0.00
2019-03-06T02:55:20.900Z,0.00
2019-03-06T02:56:20.893Z,0.00
2019-03-06T02:57:20.874Z,0.00
2019-03-06T02:58:20.882Z,0.00
2019-03-06T02:59:20.852Z,0.00
2019-03-06T03:00:20.840Z,0.00
2019-03-06T03:01:20.831Z,0.00
2019-03-06T03:02:20.827Z,0.00
2019-03-06T03:03:20.822Z,0.00
2019-03-06T03:04:20.797Z,0.00
2019-03-06T03:05:20.784Z,0.00
2019-03-06T03:06:20.773Z,0.00
2019-03-06T03:07:20.765Z,0.00
2019-03-06T03:08:20.782Z,0.00
2019-03-06T03:09:20.763Z,0.00
2019-03-06T03:10:20.730Z,0.00
2019-03-06T03:11:20.718Z,0.00
2019-03-06T03:12:20.708Z,16.00
2019-03-06T03:13:20.699Z,16.00
2019-03-06T03:14:20.712Z,16.00
2019-03-06T03:15:20.674Z,16.00
2019-03-06T03:16:20.661Z,16.00
2019-03-06T03:17:20.651Z,16.00
2019-03-06T03:18:20.645Z,16.00
2019-03-06T03:19:20.647Z,16.00
2019-03-06T03:20:20.635Z,0.00
2019-03-06T03:21:20.608Z,0.00
2019-03-06T03:22:20.595Z,0.00
2019-03-06T03:23:20.584Z,0.00
2019-03-06T03:24:20.587Z,0.00
2019-03-06T03:25:20.565Z,0.00
2019-03-06T03:26:20.563Z,0.00
2019-03-06T03:27:20.539Z,0.00
2019-03-06T03:28:20.544Z,0.00
2019-03-06T03:29:20.531Z,0.00
2019-03-06T03:30:20.509Z,0.00
2019-03-06T03:31:20.498Z,0.00
2019-03-06T03:32:20.491Z,0.00
2019-03-06T03:33:20.567Z,0.00
2019-03-06T03:34:20.490Z,0.00
2019-03-06T03:35:20.454Z,0.00
2019-03-06T03:36:20.444Z,0.00
2019-03-06T03:37:20.431Z,0.00
2019-03-06T03:38:20.459Z,0.00
2019-03-06T03:39:20.422Z,0.00
2019-03-06T03:40:20.408Z,0.00
2019-03-06T03:41:20.384Z,0.00
2019-03-06T03:42:20.375Z,0.00
2019-03-06T03:43:20.361Z,0.00
2019-03-06T03:44:20.394Z,0.00
2019-03-06T03:45:20.343Z,0.00
2019-03-06T03:46:20.332Z,0.00
2019-03-06T03:47:20.317Z,0.00
2019-03-06T03:48:20.305Z,0.00
2019-03-06T03:49:20.317Z,0.00
2019-03-06T03:50:20.349Z,0.00
2019-03-06T03:51:20.271Z,0.00
2019-03-06T03:52:20.262Z,0.00
2019-03-06T03:53:20.248Z,0.00
2019-03-06T03:54:20.237Z,0.00
2019-03-06T03:55:20.255Z,0.00
2019-03-06T03:56:20.239Z,0.00
2019-03-06T03:57:20.207Z,0.00
2019-03-06T03:58:20.196Z,0.00
2019-03-06T03:59:20.182Z,0.00
2019-03-06T04:00:20.188Z,0.00
2019-03-06T04:01:20.162Z,0.00
2019-03-06T04:02:20.161Z,0.00
2019-03-06T04:03:20.138Z,0.00
2019-03-06T04:04:20.137Z,0.00
2019-03-06T04:05:20.137Z,0.00
2019-03-06T04:06:20.108Z,0.00
2019-03-06T04:07:20.094Z,0.00
2019-03-06T04:08:20.090Z,0.00
2019-03-06T04:09:20.071Z,0.00
2019-03-06T04:10:20.084Z,0.00
2019-03-06T04:11:20.048Z,0.00
2019-03-06T04:12:20.040Z,0.00
2019-03-06T04:13:20.026Z,0.00
2019-03-06T04:14:20.020Z,0.00
2019-03-06T04:15:20.029Z,0.00
2019-03-06T04:16:20.014Z,0.00
2019-03-06T04:17:19.991Z,0.00
2019-03-06T04:18:19.972Z,0.00
2019-03-06T04:19:19.961Z,0.00
2019-03-06T04:20:19.970Z,0.00
2019-03-06T04:21:19.937Z,0.00
2019-03-06T04:22:19.927Z,0.00
2019-03-06T04:23:19.913Z,0.00
2019-03-06T04:24:19.904Z,0.00
2019-03-06T04:25:19.918Z,0.00
2019-03-06T04:26:19.887Z,0.00
2019-03-06T04:27:19.868Z,0.00
2019-03-06T04:28:19.860Z,0.00
2019-03-06T04:29:19.850Z,0.00
2019-03-06T04:30:19.859Z,0.00
2019-03-06T04:31:19.824Z,0.00
2019-03-06T04:32:19.828Z,0.00
2019-03-06T04:33:19.809Z,0.00
2019-03-06T04:34:19.790Z,0.00
2019-03-06T04:35:19.806Z,0.00
2019-03-06T04:36:19.768Z,0.00
2019-03-06T04:37:19.759Z,0.00
2019-03-06T04:38:19.757Z,0.00
2019-03-06T04:39:19.737Z,0.00
2019-03-06T04:40:19.738Z,0.00
2019-03-06T04:41:19.712Z,0.00
2019-03-06T04:42:19.703Z,0.00
2019-03-06T04:43:19.689Z,0.00
2019-03-06T04:44:19.685Z,0.00
2019-03-06T04:45:19.685Z,0.00
2019-03-06T04:46:19.660Z,0.00
2019-03-06T04:47:19.644Z,0.00
2019-03-06T04:48:19.633Z,0.00
2019-03-06T04:49:19.621Z,0.00
2019-03-06T04:50:19.636Z,0.00
2019-03-06T04:51:19.602Z,0.00
2019-03-06T04:52:19.588Z,0.00
2019-03-06T04:53:19.580Z,0.00
2019-03-06T04:54:19.566Z,0.00
2019-03-06T04:55:19.575Z,0.00
2019-03-06T04:56:19.556Z,0.00
2019-03-06T04:57:19.534Z,0.00
2019-03-06T04:58:19.523Z,0.00
2019-03-06T04:59:19.512Z,0.00
2019-03-06T05:00:19.540Z,0.00
2019-03-06T05:01:19.488Z,0.00
2019-03-06T05:02:19.481Z,0.00
2019-03-06T05:03:19.464Z,0.00
2019-03-06T05:04:19.453Z,0.00
2019-03-06T05:05:19.441Z,0.00
2019-03-06T05:06:19.449Z,0.00
2019-03-06T05:07:19.421Z,0.00
2019-03-06T05:08:19.415Z,0.00
2019-03-06T05:09:19.397Z,0.00
2019-03-06T05:10:19.385Z,0.00
2019-03-06T05:11:19.392Z,0.00
2019-03-06T05:12:19.362Z,0.00
2019-03-06T05:13:19.357Z,0.00
2019-03-06T05:14:19.349Z,0.00
2019-03-06T05:15:19.330Z,0.00
2019-03-06T05:16:19.332Z,0.00
2019-03-06T05:17:19.305Z,0.00
2019-03-06T05:18:19.294Z,0.00
2019-03-06T05:19:19.286Z,16.00
2019-03-06T05:20:19.279Z,16.00
2019-03-06T05:21:19.279Z,16.00
2019-03-06T05:22:19.307Z,20.00
2019-03-06T05:23:19.238Z,16.00
2019-03-06T05:24:19.227Z,16.00
2019-03-06T05:25:19.217Z,16.00
2019-03-06T05:26:19.233Z,16.00
2019-03-06T05:27:19.193Z,20.00
2019-03-06T05:28:19.182Z,16.00
2019-03-06T05:29:19.171Z,16.00
2019-03-06T05:30:19.161Z,16.00
2019-03-06T05:31:19.165Z,16.00
2019-03-06T05:32:19.149Z,16.00
2019-03-06T05:33:19.127Z,20.00
2019-03-06T05:34:19.116Z,20.00
2019-03-06T05:35:19.103Z,16.00
2019-03-06T05:36:19.110Z,20.00
2019-03-06T05:37:19.080Z,20.00
2019-03-06T05:38:19.080Z,24.00
2019-03-06T05:39:19.057Z,24.00
2019-03-06T05:40:19.046Z,24.00
2019-03-06T05:41:19.049Z,24.00
2019-03-06T05:42:19.023Z,12.00
2019-03-06T05:43:19.017Z,16.00
2019-03-06T05:44:19.009Z,16.00
2019-03-06T05:45:18.987Z,16.00
2019-03-06T05:46:19.002Z,20.00
2019-03-06T05:47:18.968Z,24.00
2019-03-06T05:48:18.953Z,28.00
2019-03-06T05:49:18.942Z,32.00
2019-03-06T05:50:20.314Z,36.00
2019-03-06T05:51:18.920Z,40.00
2019-03-06T05:52:18.924Z,48.00
2019-03-06T05:53:18.897Z,56.00
2019-03-06T05:54:18.885Z,56.00
2019-03-06T05:55:18.873Z,64.00
2019-03-06T05:56:18.870Z,72.00
2019-03-06T05:57:18.867Z,80.00
2019-03-06T05:58:18.842Z,84.00
2019-03-06T05:59:18.828Z,92.00
2019-03-06T06:00:18.817Z,100.00
2019-03-06T06:01:18.805Z,108.00
2019-03-06T06:02:18.819Z,116.00
2019-03-06T06:03:18.784Z,120.00
2019-03-06T06:04:18.773Z,124.00
2019-03-06T06:05:18.760Z,132.00
2019-03-06T06:06:18.752Z,140.00
2019-03-06T06:07:18.765Z,144.00
2019-03-06T06:08:18.731Z,148.00
2019-03-06T06:09:18.714Z,152.00
2019-03-06T06:10:18.701Z,156.00
2019-03-06T06:11:18.692Z,164.00
2019-03-06T06:12:18.697Z,168.00
2019-03-06T06:13:18.671Z,180.00
2019-03-06T06:14:18.664Z,188.00
2019-03-06T06:15:18.645Z,192.00
2019-03-06T06:16:18.633Z,204.00
2019-03-06T06:17:18.640Z,208.00
2019-03-06T06:18:18.610Z,216.00
2019-03-06T06:19:18.599Z,224.00
2019-03-06T06:20:18.595Z,232.00
2019-03-06T06:21:18.586Z,240.00
2019-03-06T06:22:18.581Z,248.00
2019-03-06T06:23:18.554Z,256.00
2019-03-06T06:24:18.546Z,264.00
2019-03-06T06:25:18.538Z,272.00
2019-03-06T06:26:18.528Z,276.00
2019-03-06T06:27:18.535Z,284.00
2019-03-06T06:28:18.499Z,292.00
2019-03-06T06:29:18.489Z,304.00
2019-03-06T06:30:18.474Z,312.00
2019-03-06T06:31:18.463Z,320.00
2019-03-06T06:32:18.458Z,328.00
2019-03-06T06:33:18.466Z,336.00
2019-03-06T06:34:18.428Z,348.00
2019-03-06T06:35:18.420Z,360.00
2019-03-06T06:36:18.408Z,372.00
2019-03-06T06:37:18.393Z,388.00
2019-03-06T06:38:18.409Z,396.00
2019-03-06T06:39:18.372Z,412.00
2019-03-06T06:40:18.404Z,428.00
2019-03-06T06:41:18.348Z,448.00
2019-03-06T06:42:18.338Z,460.00
2019-03-06T06:43:18.347Z,468.00
2019-03-06T06:44:18.321Z,472.00
2019-03-06T06:45:18.304Z,476.00
2019-03-06T06:46:18.296Z,488.00
2019-03-06T06:47:18.281Z,488.00
2019-03-06T06:48:18.290Z,492.00
2019-03-06T06:49:18.259Z,492.00
2019-03-06T06:50:18.256Z,496.00
2019-03-06T06:51:18.237Z,500.00
2019-03-06T06:52:18.225Z,504.00
2019-03-06T06:53:18.245Z,508.00
2019-03-06T06:54:18.199Z,516.00
2019-03-06T06:55:18.190Z,516.00
2019-03-06T06:56:18.203Z,524.00
2019-03-06T06:57:18.166Z,528.00
2019-03-06T06:58:18.156Z,536.00
2019-03-06T06:59:18.161Z,540.00
2019-03-06T07:00:18.135Z,540.00
2019-03-06T07:01:18.119Z,548.00
2019-03-06T07:02:18.118Z,556.00
2019-03-06T07:03:18.098Z,556.00
2019-03-06T07:04:18.101Z,560.00
2019-03-06T07:05:18.074Z,568.00
2019-03-06T07:06:18.062Z,572.00
2019-03-06T07:07:18.053Z,576.00
2019-03-06T07:08:18.056Z,584.00
2019-03-06T07:09:18.054Z,592.00
2019-03-06T07:10:18.017Z,592.00
2019-03-06T07:11:18.006Z,600.00
2019-03-06T07:12:17.999Z,596.00
2019-03-06T07:13:17.982Z,600.00
2019-03-06T07:14:17.996Z,612.00
2019-03-06T07:15:17.960Z,612.00
2019-03-06T07:16:17.947Z,620.00
2019-03-06T07:17:17.938Z,628.00
2019-03-06T07:18:17.926Z,640.00
2019-03-06T07:19:17.939Z,656.00
2019-03-06T07:20:17.908Z,672.00
2019-03-06T07:21:17.895Z,680.00
2019-03-06T07:22:17.882Z,696.00
2019-03-06T07:23:17.870Z,716.00
2019-03-06T07:24:17.874Z,736.00
2019-03-06T07:25:17.990Z,756.00
2019-03-06T07:26:17.842Z,772.00
2019-03-06T07:27:17.822Z,788.00
2019-03-06T07:28:17.811Z,800.00
2019-03-06T07:29:17.819Z,808.00
2019-03-06T07:30:17.789Z,824.00
2019-03-06T07:31:17.779Z,836.00
2019-03-06T07:32:17.786Z,848.00
2019-03-06T07:33:17.756Z,864.00
2019-03-06T07:34:17.759Z,876.00
2019-03-06T07:35:17.732Z,884.00
2019-03-06T07:36:17.724Z,892.00
2019-03-06T07:37:17.710Z,904.00
2019-03-06T07:38:17.708Z,908.00
2019-03-06T07:39:17.730Z,920.00
2019-03-06T07:40:17.676Z,928.00
2019-03-06T07:41:17.666Z,944.00
2019-03-06T07:42:17.656Z,956.00
2019-03-06T07:43:17.643Z,960.00
2019-03-06T07:44:17.642Z,980.00
2019-03-06T07:45:17.643Z,992.00
2019-03-06T07:46:17.611Z,996.00
2019-03-06T07:47:17.600Z,988.00
2019-03-06T07:48:17.589Z,972.00
2019-03-06T07:49:17.577Z,956.00
2019-03-06T07:50:17.590Z,936.00
2019-03-06T07:51:17.555Z,928.00
2019-03-06T07:52:17.546Z,924.00
2019-03-06T07:53:17.533Z,924.00
2019-03-06T07:54:17.522Z,928.00
2019-03-06T07:55:17.630Z,936.00
2019-03-06T07:56:17.514Z,948.00
2019-03-06T07:57:17.487Z,944.00
2019-03-06T07:58:17.477Z,956.00
2019-03-06T07:59:17.464Z,956.00
2019-03-06T08:00:17.471Z,960.00
2019-03-06T08:01:17.456Z,956.00
2019-03-06T08:02:17.442Z,960.00
2019-03-06T08:03:17.420Z,968.00
2019-03-06T08:04:17.417Z,980.00
2019-03-06T08:05:17.415Z,992.00
2019-03-06T08:06:17.387Z,988.00
2019-03-06T08:07:17.378Z,1008.00
2019-03-06T08:08:17.380Z,1008.00
2019-03-06T08:09:17.354Z,1004.00
2019-03-06T08:10:17.359Z,1004.00
2019-03-06T08:11:17.332Z,996.00
2019-03-06T08:12:17.321Z,992.00
2019-03-06T08:13:17.310Z,1000.00
2019-03-06T08:14:22.271Z,1008.00
2019-03-06T08:15:18.301Z,1016.00
2019-03-06T08:16:17.277Z,1032.00
2019-03-06T08:17:17.265Z,1044.00
2019-03-06T08:18:17.253Z,1064.00
2019-03-06T08:19:17.244Z,1076.00
2019-03-06T08:20:17.258Z,1092.00
2019-03-06T08:21:17.224Z,1112.00
2019-03-06T08:22:17.209Z,1140.00
2019-03-06T08:23:17.197Z,1160.00
2019-03-06T08:24:17.188Z,1188.00
2019-03-06T08:25:17.190Z,1204.00
2019-03-06T08:26:17.187Z,1232.00
2019-03-06T08:27:17.153Z,1248.00
2019-03-06T08:28:17.143Z,1272.00
2019-03-06T08:29:17.131Z,1288.00
2019-03-06T08:30:17.135Z,1304.00
2019-03-06T08:31:17.118Z,1312.00
2019-03-06T08:32:17.105Z,1320.00
2019-03-06T08:33:18.412Z,1332.00
2019-03-06T08:34:17.095Z,1336.00
2019-03-06T08:35:17.082Z,1348.00
2019-03-06T08:36:17.058Z,1376.00
2019-03-06T08:37:17.597Z,1400.00
2019-03-06T08:38:17.039Z,1428.00
2019-03-06T08:39:17.029Z,1460.00
2019-03-06T08:40:17.023Z,1492.00
2019-03-06T08:41:16.998Z,1520.00
2019-03-06T08:42:16.987Z,1540.00
2019-03-06T08:43:16.977Z,1560.00
2019-03-06T08:44:16.968Z,1580.00
2019-03-06T08:45:16.970Z,1588.00
2019-03-06T08:46:16.948Z,1580.00
2019-03-06T08:47:16.930Z,1568.00
2019-03-06T08:48:16.920Z,1544.00
2019-03-06T08:49:16.910Z,1520.00
2019-03-06T08:50:16.938Z,1488.00
2019-03-06T08:51:16.887Z,1456.00
2019-03-06T08:52:16.885Z,1412.00
2019-03-06T08:53:16.863Z,1372.00
2019-03-06T08:54:16.854Z,1340.00
2019-03-06T08:55:16.843Z,1316.00
2019-03-06T08:56:16.859Z,1284.00
2019-03-06T08:57:16.820Z,1256.00
2019-03-06T08:58:16.808Z,1236.00
2019-03-06T08:59:18.650Z,1212.00
2019-03-06T09:00:16.789Z,1188.00
2019-03-06T09:01:16.795Z,1160.00
2019-03-06T09:02:16.774Z,1148.00
2019-03-06T09:03:16.753Z,1124.00
2019-03-06T09:04:16.742Z,1096.00
2019-03-06T09:05:16.729Z,1072.00
2019-03-06T09:06:16.736Z,1060.00
2019-03-06T09:07:16.724Z,1024.00
2019-03-06T09:08:16.706Z,1036.00
2019-03-06T09:09:16.685Z,1036.00
2019-03-06T09:10:16.676Z,1028.00
2019-03-06T09:11:16.679Z,1032.00
2019-03-06T09:12:16.652Z,1028.00
2019-03-06T09:13:16.642Z,1024.00
2019-03-06T09:14:16.639Z,1012.00
2019-03-06T09:15:16.620Z,996.00
2019-03-06T09:16:16.623Z,980.00
2019-03-06T09:17:16.597Z,980.00
2019-03-06T09:18:16.585Z,968.00
2019-03-06T09:19:16.574Z,964.00
2019-03-06T09:20:16.575Z,964.00
2019-03-06T09:21:16.569Z,952.00
2019-03-06T09:22:16.541Z,948.00
2019-03-06T09:23:22.750Z,948.00
2019-03-06T09:24:17.517Z,944.00
2019-03-06T09:25:16.509Z,944.00
2019-03-06T09:26:16.522Z,944.00
2019-03-06T09:27:16.486Z,944.00
2019-03-06T09:28:16.476Z,952.00
2019-03-06T09:29:16.466Z,956.00
2019-03-06T09:30:16.484Z,968.00
2019-03-06T09:31:16.458Z,976.00
2019-03-06T09:32:16.442Z,988.00
2019-03-06T09:33:16.420Z,1000.00
2019-03-06T09:34:16.407Z,1012.00
2019-03-06T09:35:16.396Z,1020.00
2019-03-06T09:36:16.417Z,1032.00
2019-03-06T09:37:16.374Z,1044.00
2019-03-06T09:38:16.372Z,1056.00
2019-03-06T09:39:16.352Z,1076.00
2019-03-06T09:40:16.341Z,1092.00
2019-03-06T09:41:16.331Z,1108.00
2019-03-06T09:42:18.419Z,1128.00
2019-03-06T09:43:16.309Z,1148.00
2019-03-06T09:44:16.299Z,1172.00
2019-03-06T09:45:16.293Z,1196.00
2019-03-06T09:46:16.274Z,1208.00
2019-03-06T09:47:16.279Z,1224.00
2019-03-06T09:48:16.252Z,1232.00
2019-03-06T09:49:16.243Z,1240.00
2019-03-06T09:50:16.230Z,1264.00
2019-03-06T09:51:16.230Z,1284.00
2019-03-06T09:52:16.230Z,1304.00
2019-03-06T09:53:16.199Z,1324.00
2019-03-06T09:54:16.186Z,1364.00
2019-03-06T09:55:16.175Z,1400.00
2019-03-06T09:56:16.163Z,1436.00
2019-03-06T09:57:16.177Z,1472.00
2019-03-06T09:58:16.144Z,1508.00
2019-03-06T09:59:16.133Z,1532.00
2019-03-06T10:00:16.119Z,1568.00
2019-03-06T10:01:16.108Z,1612.00
2019-03-06T10:02:16.115Z,1668.00
2019-03-06T10:03:16.092Z,1732.00
2019-03-06T10:04:16.076Z,1808.00
2019-03-06T10:05:16.063Z,1880.00
2019-03-06T10:06:16.056Z,1956.00
2019-03-06T10:07:16.057Z,2024.00
2019-03-06T10:08:16.030Z,2096.00
2019-03-06T10:09:16.028Z,2156.00
2019-03-06T10:10:16.008Z,2204.00
2019-03-06T10:11:17.221Z,2264.00
2019-03-06T10:12:16.001Z,2328.00
2019-03-06T10:13:15.974Z,2424.00
2019-03-06T10:14:15.967Z,2528.00
2019-03-06T10:15:15.960Z,2620.00
2019-03-06T10:16:16.168Z,2724.00
2019-03-06T10:17:15.946Z,2844.00
2019-03-06T10:18:15.921Z,2976.00
2019-03-06T10:19:15.915Z,3080.00
2019-03-06T10:20:24.901Z,3136.00
2019-03-06T10:21:16.890Z,3188.00
2019-03-06T10:22:15.901Z,3240.00
2019-03-06T10:23:15.867Z,3252.00
2019-03-06T10:24:15.855Z,3280.00
2019-03-06T10:25:15.844Z,3300.00
2019-03-06T10:26:15.890Z,3328.00
2019-03-06T10:27:15.862Z,3324.00
2019-03-06T10:28:15.810Z,3324.00
2019-03-06T10:29:15.798Z,3320.00
2019-03-06T10:30:15.787Z,3304.00
2019-03-06T10:31:15.777Z,3296.00
2019-03-06T10:32:15.783Z,3260.00
2019-03-06T10:33:15.761Z,3232.00
2019-03-06T10:34:15.744Z,3188.00
2019-03-06T10:35:15.808Z,3156.00
2019-03-06T10:36:15.727Z,3120.00
2019-03-06T10:37:15.728Z,3096.00
2019-03-06T10:38:16.844Z,3068.00
2019-03-06T10:39:15.697Z,3044.00
2019-03-06T10:40:15.680Z,3068.00
2019-03-06T10:41:15.670Z,3124.00
2019-03-06T10:42:15.684Z,3192.00
2019-03-06T10:43:15.649Z,3276.00
2019-03-06T10:44:15.635Z,3412.00
2019-03-06T10:45:15.628Z,3520.00
2019-03-06T10:46:15.616Z,3568.00
2019-03-06T10:47:15.623Z,3592.00
2019-03-06T10:48:15.595Z,3608.00
2019-03-06T10:49:15.582Z,3596.00
2019-03-06T10:50:15.575Z,3548.00
2019-03-06T10:51:15.571Z,3456.00
2019-03-06T10:52:15.585Z,3424.00
2019-03-06T10:53:15.540Z,3392.00
2019-03-06T10:54:15.532Z,3356.00
2019-03-06T10:55:15.519Z,3348.00
2019-03-06T10:56:15.507Z,3372.00
2019-03-06T10:57:15.504Z,3292.00
2019-03-06T10:58:15.500Z,3152.00
2019-03-06T10:59:15.474Z,2992.00
2019-03-06T11:00:15.465Z,2892.00
2019-03-06T11:01:15.453Z,2892.00
2019-03-06T11:02:15.442Z,2964.00
2019-03-06T11:03:15.453Z,3024.00
2019-03-06T11:04:15.423Z,3024.00
2019-03-06T11:05:15.418Z,3020.00
2019-03-06T11:06:15.399Z,3048.00
2019-03-06T11:07:15.389Z,3152.00
2019-03-06T11:08:15.396Z,3292.00
2019-03-06T11:09:15.368Z,3392.00
2019-03-06T11:10:23.499Z,3460.00
2019-03-06T11:11:16.344Z,3528.00
2019-03-06T11:12:15.334Z,3572.00
2019-03-06T11:13:15.338Z,3532.00
2019-03-06T11:14:15.313Z,3508.00
2019-03-06T11:15:15.301Z,3496.00
2019-03-06T11:16:17.969Z,3496.00
2019-03-06T11:17:15.282Z,3508.00
2019-03-06T11:18:16.442Z,3528.00
2019-03-06T11:19:15.259Z,3508.00
2019-03-06T11:20:15.250Z,3472.00
2019-03-06T11:21:15.239Z,3444.00
2019-03-06T11:22:15.242Z,3432.00
2019-03-06T11:23:15.258Z,3416.00
2019-03-06T11:24:15.204Z,3372.00
2019-03-06T11:25:15.194Z,3320.00
2019-03-06T11:26:15.184Z,3288.00
2019-03-06T11:27:15.174Z,3292.00
2019-03-06T11:28:15.184Z,3312.00
2019-03-06T11:29:15.169Z,3304.00
2019-03-06T11:30:15.141Z,3292.00
2019-03-06T11:31:15.134Z,3292.00
2019-03-06T11:32:15.122Z,3312.00
2019-03-06T11:33:15.109Z,3348.00
2019-03-06T11:34:15.121Z,3388.00
2019-03-06T11:35:15.089Z,3396.00
2019-03-06T11:36:15.077Z,3424.00
2019-03-06T11:37:15.067Z,3488.00
2019-03-06T11:38:15.058Z,3556.00
2019-03-06T11:39:15.064Z,3644.00
2019-03-06T11:40:15.044Z,3660.00
2019-03-06T11:41:15.024Z,3648.00
2019-03-06T11:42:15.013Z,3652.00
2019-03-06T11:43:15.001Z,3692.00
2019-03-06T11:44:15.008Z,3808.00
2019-03-06T11:45:14.984Z,3992.00
2019-03-06T11:46:14.980Z,4192.00
2019-03-06T11:47:14.959Z,4436.00
2019-03-06T11:48:14.956Z,4648.00
2019-03-06T11:49:14.953Z,4824.00
2019-03-06T11:50:14.931Z,5056.00
2019-03-06T11:51:14.919Z,5368.00
2019-03-06T11:52:14.914Z,5508.00
2019-03-06T11:53:14.896Z,6308.00
2019-03-06T11:54:14.897Z,6980.00
2019-03-06T11:55:14.872Z,8304.00
2019-03-06T11:56:14.861Z,8244.00
2019-03-06T11:57:14.857Z,10328.00
2019-03-06T11:58:14.852Z,8868.00
2019-03-06T11:59:14.867Z,8556.00
2019-03-06T12:00:14.817Z,6488.00
2019-03-06T12:01:14.804Z,6084.00
2019-03-06T12:02:14.795Z,5640.00
2019-03-06T12:03:14.782Z,6044.00
2019-03-06T12:04:14.776Z,6332.00
2019-03-06T12:05:14.776Z,5672.00
2019-03-06T12:06:14.749Z,4432.00
2019-03-06T12:07:14.737Z,4372.00
2019-03-06T12:08:14.727Z,4604.00
2019-03-06T12:09:14.714Z,4448.00
2019-03-06T12:10:14.730Z,5012.00
2019-03-06T12:11:14.694Z,6756.00
2019-03-06T12:12:14.683Z,10332.00
2019-03-06T12:13:14.703Z,11772.00
2019-03-06T12:14:14.661Z,14784.00
2019-03-06T12:15:14.666Z,17640.00
2019-03-06T12:16:14.645Z,17956.00
2019-03-06T12:17:14.629Z,10924.00
2019-03-06T12:18:14.616Z,7132.00
2019-03-06T12:19:14.607Z,9924.00
2019-03-06T12:20:14.609Z,15420.00
2019-03-06T12:21:14.583Z,13568.00
2019-03-06T12:22:14.575Z,14112.00
2019-03-06T12:23:14.817Z,15064.00
2019-03-06T12:24:14.551Z,18168.00
2019-03-06T12:25:14.554Z,19320.00
2019-03-06T12:26:14.530Z,20576.00
2019-03-06T12:27:14.523Z,20832.00
2019-03-06T12:28:14.511Z,17844.00
2019-03-06T12:29:14.502Z,16236.00
2019-03-06T12:30:14.496Z,16608.00
2019-03-06T12:31:14.469Z,17972.00
2019-03-06T12:32:14.462Z,19556.00
2019-03-06T12:33:14.448Z,19068.00
2019-03-06T12:34:14.435Z,17068.00
2019-03-06T12:35:14.446Z,13404.00
2019-03-06T12:36:14.414Z,13436.00
2019-03-06T12:37:14.402Z,12840.00
2019-03-06T12:38:14.393Z,9696.00
2019-03-06T12:39:14.381Z,7324.00
2019-03-06T12:40:14.912Z,6940.00